Latest Weather Observations for Pearce

IDW60801

Issued at 8:33 pm WST Friday 20 October 2017 (issued every 30 minutes, with the page automatically refreshed every 10 minutes)

About weather observations | Map of weather stations | Latest weather observations for WA | Other Formats
Station Details ID: 009053 Name: PEARCE RAAF Lat: -31.67 Lon: 116.02 Height: 40.0 m
Data from the previous 72 hours. | See also: Recent months at Pearce
Date/Time
WST
Temp
°C
App
Temp
°C
Dew
Point
°C
Rel
Hum
%
Delta-T
°C
Wind Press
QNH
hPa
Press
MSL
hPa
Rain since
9am
mm
Dir  Spd
km/h
Gust
km/h
Spd
kts
Gust
kts
20/08:30pm 20.4 19.4 5.6 38 7.3 CALM 0 0 0 0 1021.7 1021.6 0.0
20/08:00pm 20.6 18.6 6.2 39 7.2 ESE 6 7 3 4 1021.5 1021.4 0.0
20/07:30pm 23.0 20.6 5.4 32 8.8 ESE 7 9 4 5 1021.2 1021.1 0.0
20/07:00pm 23.8 21.2 6.1 32 9.0 ESE 9 11 5 6 1021.0 1020.9 0.0
20/06:30pm 24.3 21.2 5.6 30 9.5 ESE 11 13 6 7 1020.7 1020.6 0.0
20/06:00pm 26.8 23.6 5.1 25 11.1 ESE 11 15 6 8 1020.5 1020.4 0.0
20/05:30pm 28.2 24.1 4.5 22 12.1 ESE 15 22 8 12 1020.3 1020.2 0.0
20/05:00pm 28.9 24.9 5.1 22 12.3 ESE 15 22 8 12 1020.4 1020.3 0.0
20/04:30pm 29.0 24.2 4.5 21 12.6 E 19 26 10 14 1020.6 1020.5 0.0
20/04:00pm 29.2 24.8 4.6 21 12.6 E 17 26 9 14 1020.7 1020.6 0.0
20/03:30pm 29.2 24.4 4.6 21 12.7 ENE 19 30 10 16 1020.6 1020.5 0.0
20/03:00pm 29.5 24.4 4.2 20 12.9 ESE 20 28 11 15 1020.7 1020.6 0.0
20/02:30pm 29.0 24.7 5.1 22 12.4 ENE 17 30 9 16 1020.9 1020.8 0.0
20/02:00pm 29.0 24.4 5.8 23 12.1 ENE 19 26 10 14 1021.2 1021.1 0.0
20/01:30pm 28.4 22.9 5.9 24 11.8 E 24 35 13 19 1021.6 1021.5 0.0
20/01:00pm 28.4 23.2 7.1 26 11.4 E 24 33 13 18 1021.9 1021.8 0.0
20/12:30pm 27.8 22.7 7.6 28 10.9 ENE 24 37 13 20 1022.3 1022.2 0.0
20/12:00pm 27.2 22.2 6.6 27 10.8 ENE 22 32 12 17 1022.6 1022.5 0.0
20/11:30am 26.1 19.8 7.2 30 10.0 ENE 30 43 16 23 1022.9 1022.8 0.0
20/11:00am 25.7 19.2 6.3 29 10.0 E 30 43 16 23 1023.2 1023.1 0.0
20/10:30am 24.6 18.2 6.8 32 9.3 ENE 30 44 16 24 1023.5 1023.4 0.0
20/10:00am 23.8 16.9 7.4 35 8.6 ENE 33 50 18 27 1023.7 1023.6 0.0
20/09:35am 22.7 15.6 6.5 35 8.3 ENE 33 52 18 28 1023.8 1023.7 0.0
20/09:30am 23.1 16.1 6.8 35 8.4 ENE 33 50 18 27 1023.9 1023.8 0.0
20/09:06am 22.3 15.4 6.5 36 8.1 ENE 32 52 17 28 1023.9 1023.8 0.0
20/09:00am 22.2 15.8 6.8 37 7.9 ENE 30 46 16 25 1023.9 1023.8 0.0
20/08:30am 20.9 13.9 6.8 40 7.2 ENE 33 59 18 32 1023.9 1023.8 0.0
20/08:17am 20.4 12.9 6.4 40 7.0 ENE 35 54 19 29 1023.8 1023.7 0.0
20/08:00am 19.7 12.7 6.8 43 6.5 ENE 33 48 18 26 1023.8 1023.7 0.0
20/07:30am 18.6 12.6 7.1 47 5.8 E 28 46 15 25 1023.8 1023.7 0.0
20/07:24am 18.4 12.4 6.9 47 5.8 E 28 46 15 25 1023.8 1023.7 0.0
20/07:00am 17.3 10.3 6.8 50 5.2 E 33 43 18 23 1023.6 1023.5 0.0
20/06:30am 16.1 9.2 7.1 55 4.5 E 33 44 18 24 1023.3 1023.2 0.0
20/06:00am 15.5 9.1 7.0 57 4.2 E 30 43 16 23 1023.2 1023.1 0.0
20/05:30am 15.3 8.5 6.8 57 4.2 E 32 43 17 23 1023.0 1022.9 0.0
20/05:00am 15.4 8.6 6.7 56 4.2 E 32 50 17 27 1022.5 1022.4 0.0
20/04:30am 15.7 8.3 6.7 55 4.4 E 35 54 19 29 1022.3 1022.2 0.0
20/04:25am 15.8 8.3 6.5 54 4.5 E 35 54 19 29 1022.2 1022.1 0.0
20/04:00am 15.8 8.3 6.3 53 4.6 E 35 46 19 25 1022.1 1022.0 0.0
20/03:30am 16.2 9.1 6.3 52 4.8 E 33 46 18 25 1022.2 1022.1 0.0
20/03:00am 16.3 9.3 6.2 51 4.9 E 32 48 17 26 1022.3 1022.2 0.0
20/02:30am 16.5 9.3 6.1 50 5.1 E 33 52 18 28 1022.3 1022.2 0.0
20/02:23am 16.7 9.5 5.9 49 5.2 E 33 52 18 28 1022.3 1022.2 0.0
20/02:00am 16.8 10.1 5.7 48 5.4 E 30 46 16 25 1022.6 1022.5 0.0
20/01:30am 17.1 11.1 5.1 45 5.8 E 26 39 14 21 1022.6 1022.5 0.0
20/01:00am 18.1 10.8 4.7 41 6.4 E 32 50 17 27 1022.4 1022.3 0.0
20/12:52am 18.6 11.3 4.4 39 6.8 E 32 50 17 27 1022.4 1022.3 0.0
20/12:30am 19.3 14.2 4.3 37 7.2 E 20 37 11 20 1022.7 1022.6 0.0
20/12:00am 19.2 14.8 4.6 38 7.0 E 17 28 9 15 1023.0 1022.9 0.0
 
Date/Time
WST
Temp
°C
App
Temp
°C
Dew
Point
°C
Rel
Hum
%
Delta-T
°C
Wind Press
QNH
hPa
Press
MSL
hPa
Rain since
9am
mm
Dir  Spd
km/h
Gust
km/h
Spd
kts
Gust
kts
19/11:30pm 18.4 15.0 5.9 44 6.1 E 13 22 7 12 1023.2 1023.1 0.0
19/11:00pm 14.5 12.8 7.5 63 3.4 S 6 7 3 4 1023.6 1023.5 0.0
19/10:30pm 14.8 13.5 7.6 62 3.6 S 4 9 2 5 1023.9 1023.8 0.0
19/10:00pm 14.1 13.3 8.3 68 2.9 S 2 7 1 4 1024.2 1024.1 0.0
19/09:30pm 14.5 12.0 8.0 65 3.2 S 11 15 6 8 1024.2 1024.1 0.0
19/09:00pm 15.6 12.7 8.1 61 3.8 S 13 15 7 8 1024.4 1024.3 0.0
19/08:30pm 15.5 12.6 8.0 61 3.8 SSW 13 19 7 10 1024.5 1024.4 0.0
19/08:00pm 17.7 15.0 7.2 50 5.2 SE 11 13 6 7 1024.5 1024.4 0.0
19/07:30pm 18.5 15.8 7.3 48 5.7 SE 11 13 6 7 1024.3 1024.2 0.0
19/07:00pm 19.9 17.6 7.3 44 6.4 SE 9 11 5 6 1024.3 1024.2 0.0
19/06:30pm 20.6 18.1 6.5 40 7.1 SE 9 13 5 7 1024.0 1023.9 0.0
19/06:00pm 22.1 19.2 6.7 37 7.8 SE 11 15 6 8 1023.6 1023.5 0.0
19/05:30pm 22.4 18.1 5.4 33 8.5 SE 17 24 9 13 1023.3 1023.2 0.0
19/05:00pm 23.8 19.9 5.2 30 9.3 E 15 20 8 11 1022.9 1022.8 0.0
19/04:30pm 24.3 20.4 7.0 33 9.0 ESE 17 26 9 14 1023.0 1022.9 0.0
19/04:00pm 24.2 20.0 5.5 30 9.4 E 17 22 9 12 1023.0 1022.9 0.0
19/03:30pm 23.9 19.0 5.3 30 9.4 ESE 20 26 11 14 1022.8 1022.7 0.0
19/03:00pm 22.9 18.4 6.2 34 8.5 SE 19 24 10 13 1022.9 1022.8 0.0
19/02:30pm 23.5 19.2 5.4 31 9.1 E 17 32 9 17 1023.1 1023.0 0.0
19/02:00pm 23.4 18.2 5.3 31 9.1 ESE 22 30 12 16 1023.5 1023.4 0.0
19/01:30pm 22.8 16.9 5.7 33 8.6 E 26 43 14 23 1023.8 1023.7 0.0
19/01:00pm 22.5 17.9 5.4 33 8.5 ESE 19 28 10 15 1024.3 1024.2 0.0
19/12:30pm 22.3 17.0 6.9 37 7.9 ESE 24 35 13 19 1024.5 1024.4 0.0
19/12:00pm 21.8 16.4 8.0 41 7.2 E 26 39 14 21 1025.0 1024.9 0.0
19/11:30am 21.0 16.4 8.0 43 6.8 E 22 39 12 21 1025.4 1025.3 0.0
19/11:00am 20.2 15.8 6.5 41 6.9 E 19 28 10 15 1025.9 1025.8 0.0
19/10:30am 19.4 14.6 9.0 51 5.5 E 24 37 13 20 1026.3 1026.2 0.0
19/10:00am 18.4 12.6 7.8 50 5.4 E 28 43 15 23 1026.4 1026.3 0.0
19/09:30am 17.9 12.1 7.9 52 5.1 E 28 39 15 21 1026.5 1026.4 0.0
19/09:00am 16.6 10.0 7.8 56 4.4 E 32 46 17 25 1026.6 1026.5 0.0
19/08:30am 15.5 8.2 7.3 58 4.1 E 35 52 19 28 1026.8 1026.7 0.0
19/08:10am 14.9 8.7 6.2 56 4.2 E 28 46 15 25 1026.6 1026.5 0.0
19/08:00am 15.0 8.2 7.1 59 3.9 E 32 46 17 25 1026.6 1026.5 0.0
19/07:41am 14.1 7.8 7.2 63 3.4 E 30 48 16 26 1026.6 1026.5 0.0
19/07:30am 13.6 7.7 7.4 66 3.0 E 28 44 15 24 1026.6 1026.5 0.0
19/07:00am 12.1 6.4 6.8 70 2.5 E 26 43 14 23 1026.6 1026.5 0.0
19/06:30am 11.4 6.8 6.5 72 2.3 E 20 35 11 19 1026.4 1026.3 0.0
19/06:00am 10.5 6.0 5.9 73 2.1 ESE 19 32 10 17 1026.1 1026.0 0.0
19/05:30am 8.8 5.6 5.0 77 1.7 SSE 11 20 6 11 1026.0 1025.9 0.0
19/05:00am 8.9 6.0 4.5 74 1.9 S 9 13 5 7 1025.9 1025.8 0.0
19/04:30am 8.9 5.7 5.3 78 1.6 S 11 13 6 7 1025.8 1025.7 0.0
19/04:00am 8.6 5.5 5.4 80 1.4 S 11 17 6 9 1025.6 1025.5 0.0
19/03:30am 8.0 4.6 6.1 88 0.9 SSW 13 15 7 8 1025.3 1025.2 0.0
19/03:00am 7.3 4.7 6.1 92 0.5 SSW 9 13 5 7 1025.3 1025.2 0.0
19/02:30am 6.4 5.3 5.2 92 0.5 CALM 0 0 0 0 1025.3 1025.2 0.0
19/02:00am 6.4 5.3 5.0 91 0.6 CALM 0 0 0 0 1025.1 1025.0 0.0
19/01:30am 8.4 6.4 6.9 90 0.7 SSW 7 7 4 4 1025.1 1025.0 0.0
19/01:00am 7.0 5.9 5.3 89 0.7 CALM 0 0 0 0 1025.1 1025.0 0.0
19/12:30am 7.8 7.0 6.4 91 0.6 CALM 0 0 0 0 1025.2 1025.1 0.0
19/12:00am 7.7 6.8 6.2 90 0.7 CALM 0 0 0 0 1025.4 1025.3 0.0
 
Date/Time
WST
Temp
°C
App
Temp
°C
Dew
Point
°C
Rel
Hum
%
Delta-T
°C
Wind Press
QNH
hPa
Press
MSL
hPa
Rain since
9am
mm
Dir  Spd
km/h
Gust
km/h
Spd
kts
Gust
kts
18/11:30pm 7.7 6.7 5.8 88 0.9 CALM 0 0 0 0 1025.3 1025.2 0.0
18/11:00pm 8.4 7.6 6.4 87 0.9 CALM 0 0 0 0 1025.4 1025.3 0.0
18/10:30pm 9.4 8.6 6.3 81 1.4 CALM 0 0 0 0 1025.3 1025.2 0.0
18/10:00pm 9.9 9.1 6.6 80 1.5 CALM 0 0 0 0 1025.2 1025.1 0.0
18/09:30pm 10.7 9.8 6.1 73 2.1 CALM 0 0 0 0 1025.2 1025.1 0.0
18/09:00pm 11.2 9.0 6.1 71 2.4 SSW 7 9 4 5 1024.9 1024.8 0.0
18/08:30pm 12.0 9.9 6.7 70 2.5 SSW 7 9 4 5 1024.6 1024.5 0.0
18/08:00pm 12.1 9.6 6.4 68 2.7 SSW 9 11 5 6 1024.2 1024.1 0.0
18/07:30pm 12.0 9.1 6.3 68 2.7 SSW 11 15 6 8 1023.9 1023.8 0.0
18/07:00pm 13.7 10.1 6.8 63 3.3 SSW 15 19 8 10 1023.4 1023.3 0.0
18/06:30pm 13.9 9.9 6.7 62 3.5 SW 17 24 9 13 1023.0 1022.9 0.0
18/06:00pm 15.1 11.0 6.4 56 4.2 SW 17 26 9 14 1022.6 1022.5 0.0
18/05:30pm 16.1 11.3 5.7 50 5.0 SW 20 26 11 14 1022.2 1022.1 0.0
18/05:00pm 16.9 11.3 3.6 41 6.1 WSW 22 32 12 17 1021.9 1021.8 0.0
18/04:30pm 17.4 12.1 6.6 49 5.3 WSW 24 35 13 19 1021.6 1021.5 0.0
18/04:00pm 17.5 12.3 7.3 51 5.1 SW 24 33 13 18 1021.3 1021.2 0.0
18/03:30pm 17.7 11.5 6.3 47 5.6 SW 28 37 15 20 1021.1 1021.0 0.0
18/03:00pm 18.7 13.8 6.9 46 5.9 SW 22 30 12 16 1020.9 1020.8 0.0
18/02:30pm 16.9 11.3 5.2 46 5.6 SW 24 35 13 19 1020.8 1020.7 0.0
18/02:00pm 18.6 12.6 7.1 47 5.8 SW 28 41 15 22 1021.0 1020.9 0.0
18/01:30pm 18.2 12.1 6.4 46 5.9 SW 28 37 15 20 1020.8 1020.7 0.0
18/01:00pm 18.1 13.0 3.9 39 6.7 SW 20 28 11 15 1020.7 1020.6 0.0
18/12:30pm 18.3 12.7 5.5 43 6.2 WSW 24 35 13 19 1020.8 1020.7 0.0
18/12:00pm 18.4 12.4 6.9 47 5.7 WSW 28 39 15 21 1020.7 1020.6 0.0
18/11:30am 18.1 12.2 9.2 56 4.7 SW 30 39 16 21 1020.7 1020.6 0.0
18/11:11am 18.1 13.8 7.2 49 5.5 SW 19 28 10 15 1020.6 1020.5 0.0
18/11:00am 17.7 13.4 10.6 63 3.8 SW 24 33 13 18 1020.7 1020.6 0.0
18/10:30am 17.0 12.0 6.5 50 5.2 W 22 35 12 19 1020.6 1020.5 0.0
18/10:00am 17.5 13.3 8.4 55 4.7 SW 20 26 11 14 1020.5 1020.4 0.0
18/09:30am 16.8 12.6 8.2 57 4.4 WSW 20 32 11 17 1020.3 1020.2 0.0
18/09:00am 15.2 10.5 7.7 61 3.7 SW 22 30 12 16 1020.1 1020.0 3.6
18/08:30am 16.5 12.9 9.9 65 3.5 SW 19 26 10 14 1019.6 1019.5 3.6
18/08:00am 14.9 11.7 9.9 72 2.6 SSW 17 24 9 13 1019.3 1019.2 3.6
18/07:30am 14.8 13.5 9.8 72 2.6 WSW 7 11 4 6 1019.0 1018.9 3.6
18/07:00am 12.7 11.3 9.0 78 1.9 WSW 6 7 3 4 1018.6 1018.5 3.6
18/06:30am 12.0 11.5 9.2 83 1.4 WSW 2 7 1 4 1017.9 1017.8 3.6
18/06:00am 11.3 10.9 8.2 81 1.5 CALM 0 0 0 0 1017.3 1017.2 3.6
18/05:30am 11.4 11.0 8.3 81 1.5 CALM 0 0 0 0 1017.0 1016.9 3.6
18/05:00am 11.5 10.2 9.2 86 1.2 WSW 6 7 3 4 1016.6 1016.5 3.6
18/04:30am 11.1 9.6 9.2 88 1.0 WSW 7 9 4 5 1016.2 1016.1 3.6
18/04:00am 11.8 10.0 9.4 85 1.2 WSW 9 9 5 5 1015.7 1015.6 3.6
18/03:30am 11.9 10.8 9.8 87 1.1 WSW 6 7 3 4 1015.3 1015.2 3.6
18/03:00am 11.8 10.4 9.7 87 1.1 WSW 7 9 4 5 1015.0 1014.9 3.6
18/02:30am 11.9 10.7 9.6 86 1.2 WSW 6 7 3 4 1014.5 1014.5 3.6
18/02:00am 11.9 10.5 9.5 85 1.2 WSW 7 9 4 5 1014.2 1014.2 3.6
18/01:30am 12.5 10.7 9.5 82 1.5 WSW 9 11 5 6 1014.0 1014.0 3.6
18/01:00am 13.6 10.8 10.0 79 1.9 WSW 15 19 8 10 1014.0 1014.0 3.6
18/12:30am 13.7 12.6 11.9 89 1.0 SW 9 15 5 8 1013.9 1013.9 3.6
18/12:03am 13.5 11.2 11.7 89 1.0 SW 15 24 8 13 1013.9 1013.9 3.6
18/12:00am 13.5 10.8 11.7 89 1.0 SW 17 24 9 13 1013.9 1013.9 3.6
 
Date/Time
WST
Temp
°C
App
Temp
°C
Dew
Point
°C
Rel
Hum
%
Delta-T
°C
Wind Press
QNH
hPa
Press
MSL
hPa
Rain since
9am
mm
Dir  Spd
km/h
Gust
km/h
Spd
kts
Gust
kts
17/11:46pm 13.8 10.6 12.0 89 1.0 SW 20 30 11 16 1013.9 1013.9 3.6
17/11:30pm 14.2 10.8 12.4 89 1.0 SW 22 30 12 16 1013.6 1013.6 3.6
17/11:21pm 14.3 11.3 12.7 90 0.9 WSW 20 32 11 17 1013.7 1013.7 3.6
17/11:00pm 14.3 13.6 13.2 93 0.6 WSW 9 13 5 7 1013.3 1013.3 3.6
17/10:35pm 14.2 11.9 13.1 93 0.6 WSW 17 24 9 13 1013.2 1013.2 3.6
17/10:30pm 14.2 11.6 13.1 93 0.6 WSW 19 26 10 14 1013.2 1013.2 3.6
17/10:01pm 14.1 12.2 13.1 94 0.6 WNW 15 19 8 10 1013.1 1013.1 3.0
17/10:00pm 14.1 12.2 13.1 94 0.6 WNW 15 19 8 10 1013.1 1013.1 3.0
17/09:47pm 14.0 12.5 13.1 94 0.5 WNW 13 19 7 10 1012.8 1012.8 2.6
17/09:37pm 14.1 11.8 13.0 93 0.6 WNW 17 26 9 14 1012.9 1012.9 2.0
17/09:33pm 14.1 11.4 13.0 93 0.6 NW 19 26 10 14 1013.1 1013.1 1.6
17/09:30pm 14.1 11.4 13.0 93 0.6 NNW 19 24 10 13 1013.0 1013.0 1.4
17/09:00pm 14.2 10.1 12.8 91 0.8 NNW 26 33 14 18 1012.7 1012.7 0.2

Other Formats:

Comma delimited format used in spreadsheet applications
http://www.bom.gov.au/fwo/IDW60801/IDW60801.94612.axf

JavaScript Object Notation format (JSON) in row-major order
http://www.bom.gov.au/fwo/IDW60801/IDW60801.94612.json